Time;durP1;ratioP1;P1;durP2;ratioP2;P2;SDS_P1;SDS_P2;PMS_P1;PMS_P2;Temp;Humidity;BMP_temperature;BMP_pressure;BME280_temperature;BME280_humidity;BME280_pressure;Samples;Min_cycle;Max_cycle;Signal;HPM_P1;HPM_P2
2022/08/03 00:01:51;;;;;;;0.47;0.47;;;20.30;66.50;;;20.77;51.39;95222.34;5073724;28;20620;-77
2022/08/03 00:04:18;;;;;;;0.47;0.47;;;20.20;66.30;;;20.71;51.46;95213.44;5069085;28;20209;-77
2022/08/03 00:06:45;;;;;;;0.40;0.40;;;20.20;66.30;;;20.70;51.78;95217.19;5072086;28;20305;-77
2022/08/03 00:09:12;;;;;;;0.50;0.50;;;20.20;66.80;;;20.66;51.55;95218.72;5072356;28;20194;-78
2022/08/03 00:11:39;;;;;;;0.40;0.40;;;20.10;66.40;;;20.62;51.54;95223.75;5070550;28;20233;-78
2022/08/03 00:14:08;;;;;;;0.60;0.60;;;20.10;66.30;;;20.57;51.65;95222.88;5072885;28;20213;-77
2022/08/03 00:16:35;;;;;;;0.40;0.40;;;20.10;66.60;;;20.52;51.80;95236.13;5075216;28;20221;-77
2022/08/03 00:19:03;;;;;;;0.40;0.40;;;20.00;66.50;;;20.43;52.10;95225.09;5074977;28;20657;-77
2022/08/03 00:21:30;;;;;;;0.50;0.50;;;20.00;66.70;;;20.40;51.82;95225.59;5090116;28;20580;-78
2022/08/03 00:23:57;;;;;;;0.40;0.40;;;20.00;66.80;;;20.33;52.17;95216.97;5075394;28;20198;-78
2022/08/03 00:26:25;;;;;;;0.40;0.40;;;19.90;66.70;;;20.28;52.27;95221.16;5070901;28;20214;-77
2022/08/03 00:28:52;;;;;;;0.40;0.40;;;19.80;66.70;;;20.26;52.15;95217.13;5061169;28;20198;-78
2022/08/03 00:31:19;;;;;;;0.43;0.43;;;19.80;67.10;;;20.24;52.35;95216.59;5069934;28;20210;-79
2022/08/03 00:34:10;;;;;;;0.50;0.50;;;19.80;67.30;;;20.16;53.20;95209.81;5076551;28;20208;-78
2022/08/03 00:36:38;;;;;;;0.40;0.40;;;19.70;68.00;;;20.17;52.70;95222.06;5071745;28;20218;-77
2022/08/03 00:39:05;;;;;;;0.40;0.40;;;19.70;67.30;;;20.14;53.05;95219.88;5090384;28;20646;-78
2022/08/03 00:41:32;;;;;;;0.47;0.47;;;19.70;67.60;;;20.07;53.20;95217.41;5072833;28;20705;-78
2022/08/03 00:43:59;;;;;;;0.40;0.40;;;19.70;67.60;;;20.06;53.44;95220.31;5073749;28;20365;-77
2022/08/03 00:46:27;;;;;;;0.50;0.50;;;19.60;67.50;;;20.06;53.07;95230.97;5072918;28;20230;-78
2022/08/03 00:48:54;;;;;;;0.57;0.57;;;19.60;67.50;;;20.02;52.84;95221.84;5089824;28;20194;-78
2022/08/03 00:51:21;;;;;;;0.50;0.50;;;19.60;67.60;;;19.98;53.17;95219.69;5091740;28;20206;-78
2022/08/03 00:53:49;;;;;;;0.50;0.50;;;19.50;67.60;;;19.98;53.39;95218.88;5074241;28;20206;-77
2022/08/03 00:56:17;;;;;;;0.40;0.40;;;19.50;68.00;;;19.96;53.80;95219.13;5073301;28;20226;-77
2022/08/03 00:58:46;;;;;;;0.50;0.50;;;19.50;68.40;;;19.96;53.91;95219.13;5087537;28;20202;-78
2022/08/03 01:01:14;;;;;;;0.50;0.50;;;19.40;68.50;;;19.96;53.83;95213.00;5038285;28;20646;-78
2022/08/03 01:03:41;;;;;;;0.50;0.50;;;19.40;68.80;;;19.98;53.83;95218.88;5039379;28;20202;-77
2022/08/03 01:06:26;;;;;;;0.45;0.45;;;19.40;68.60;;;19.96;53.83;95219.13;5058996;28;20589;-78
2022/08/03 01:09:11;;;;;;;0.40;0.40;;;19.40;69.40;;;19.97;54.38;95217.28;5063882;28;20231;-77
2022/08/03 01:12:02;;;;;;;0.50;0.50;;;19.40;69.90;;;19.96;53.93;95218.31;5091761;28;20308;-78
2022/08/03 01:14:40;;;;;;;0.50;0.50;;;19.50;69.10;;;19.97;54.42;95220.72;5068722;28;20205;-78
2022/08/03 01:17:56;;;;;;;0.40;0.40;;;19.40;69.50;;;19.91;54.40;95211.06;5068630;28;20222;-77
2022/08/03 01:20:26;;;;;;;0.52;0.52;;;19.40;69.10;;;19.89;54.25;95215.81;5081902;28;20916;-78
2022/08/03 01:23:15;;;;;;;0.50;0.50;;;19.40;68.80;;;19.88;54.54;95214.19;5091359;28;20584;-77
2022/08/03 01:26:35;;;;;;;0.50;0.50;;;19.40;69.90;;;19.84;54.09;95213.88;5083765;28;20277;-78
2022/08/03 01:29:38;;;;;;;0.40;0.40;;;19.40;69.70;;;19.84;54.19;95210.41;5081577;28;20218;-78
2022/08/03 01:32:13;;;;;;;0.40;0.40;;;19.40;69.70;;;19.84;54.38;95200.56;5092309;28;20565;-78
2022/08/03 01:35:11;;;;;;;0.60;0.60;;;19.40;69.70;;;19.87;54.50;95211.78;5076416;28;20214;-77
2022/08/03 01:37:50;;;;;;;0.40;0.40;;;19.40;69.60;;;19.86;54.36;95205.66;5072220;28;20682;-78
2022/08/03 01:40:21;;;;;;;0.50;0.50;;;19.40;70.30;;;19.88;54.62;95200.09;5071311;28;20198;-79
2022/08/03 01:42:50;;;;;;;0.50;0.50;;;19.30;69.70;;;19.88;55.09;95200.88;5064121;28;20233;-79
2022/08/03 01:45:19;;;;;;;0.50;0.50;;;19.30;70.80;;;19.89;54.81;95207.03;5074839;28;20251;-79
2022/08/03 01:47:48;;;;;;;0.45;0.45;;;19.30;70.00;;;19.90;55.04;95205.97;5060749;28;20233;-78
2022/08/03 01:50:20;;;;;;;0.40;0.40;;;19.30;69.60;;;19.90;54.82;95206.78;5075899;28;20220;-78
2022/08/03 01:52:48;;;;;;;0.57;0.57;;;19.30;69.50;;;19.86;54.65;95197.69;5077006;28;20205;-79
2022/08/03 01:55:18;;;;;;;0.50;0.50;;;19.30;69.30;;;19.85;54.47;95196.06;5091111;28;20202;-79
2022/08/03 01:57:48;;;;;;;0.50;0.50;;;19.30;69.90;;;19.83;55.28;95196.31;5074399;28;20297;-79
2022/08/03 02:00:36;;;;;;;0.45;0.45;;;19.30;70.20;;;19.78;55.30;95193.53;5088477;28;20217;-78
2022/08/03 02:03:08;;;;;;;0.50;0.50;;;19.30;70.30;;;19.77;55.77;95196.44;5076402;28;20263;-79
2022/08/03 02:05:38;;;;;;;0.50;0.50;;;19.30;71.10;;;19.77;55.42;95201.75;5074492;28;20290;-79
2022/08/03 02:08:12;;;;;;;0.50;0.50;;;19.30;70.00;;;19.74;54.92;95195.06;5072986;28;20206;-78
2022/08/03 02:10:42;;;;;;;0.50;0.50;;;19.30;69.70;;;19.73;55.34;95193.44;5057519;28;20276;-79
2022/08/03 02:13:10;;;;;;;0.40;0.40;;;19.30;69.80;;;19.72;54.84;95199.81;5041266;28;20651;-78
2022/08/03 02:15:38;;;;;;;0.40;0.40;;;19.20;69.50;;;19.66;54.59;95196.28;5068863;28;20293;-79
2022/08/03 02:18:09;;;;;;;0.47;0.47;;;19.20;69.60;;;19.65;55.23;95194.66;5076564;28;20206;-79
2022/08/03 02:20:38;;;;;;;0.40;0.40;;;19.20;69.90;;;19.63;55.09;95203.94;5067666;28;20297;-78
2022/08/03 02:23:06;;;;;;;0.40;0.40;;;19.20;70.10;;;19.61;55.58;95196.19;5090158;28;20424;-79
2022/08/03 02:25:51;;;;;;;0.50;0.50;;;19.10;70.20;;;19.58;56.01;95199.34;5058317;28;20212;-79
2022/08/03 02:28:21;;;;;;;0.50;0.50;;;19.10;71.30;;;19.53;56.16;95188.63;5090870;28;20202;-79
2022/08/03 02:30:54;;;;;;;0.50;0.50;;;19.10;71.10;;;19.56;56.07;95188.13;5073129;28;20221;-79
2022/08/03 02:33:30;;;;;;;0.50;0.50;;;19.10;71.50;;;19.56;56.79;95196.09;5073131;28;20271;-78
2022/08/03 02:36:00;;;;;;;0.50;0.50;;;19.10;71.90;;;19.52;56.32;95187.78;5077260;28;20672;-78
2022/08/03 02:38:35;;;;;;;0.50;0.50;;;19.10;71.50;;;19.58;56.13;95190.53;5075629;28;20202;-78
2022/08/03 02:41:08;;;;;;;0.50;0.50;;;19.10;71.70;;;19.58;56.39;95191.34;5075336;28;20210;-79
2022/08/03 02:43:37;;;;;;;0.50;0.50;;;19.10;71.70;;;19.59;56.86;95187.66;5054666;28;20231;-78
2022/08/03 02:46:32;;;;;;;0.50;0.50;;;19.10;71.60;;;19.59;56.52;95198.28;5075370;28;20225;-79
2022/08/03 02:49:04;;;;;;;0.50;0.50;;;19.10;71.90;;;19.58;56.42;95196.69;5090864;28;20220;-79
2022/08/03 02:51:53;;;;;;;0.60;0.60;;;19.10;72.30;;;19.56;56.72;95192.66;5060712;28;20317;-78
2022/08/03 02:54:23;;;;;;;0.55;0.55;;;19.10;71.50;;;19.54;56.99;95189.41;5076897;28;20198;-78
2022/08/03 02:56:54;;;;;;;0.40;0.40;;;19.10;71.70;;;19.57;56.67;95194.28;5092861;28;20313;-78
2022/08/03 02:59:22;;;;;;;0.50;0.50;;;19.10;71.80;;;19.54;56.63;95186.75;5073070;28;20206;-79
2022/08/03 03:01:50;;;;;;;0.50;0.50;;;19.10;71.40;;;19.51;56.93;95186.19;5075175;28;20599;-78
2022/08/03 03:04:18;;;;;;;0.50;0.50;;;19.00;71.40;;;19.47;56.51;95192.22;5089400;28;20213;-78
2022/08/03 03:06:47;;;;;;;0.50;0.50;;;19.00;71.40;;;19.43;56.60;95194.59;5092172;28;20735;-78
2022/08/03 03:09:16;;;;;;;0.50;0.50;;;19.00;71.40;;;19.40;56.91;95189.72;5056723;28;20296;-78
2022/08/03 03:11:43;;;;;;;0.50;0.50;;;19.00;71.50;;;19.36;56.85;95192.06;5092552;28;20226;-79
2022/08/03 03:14:12;;;;;;;0.50;0.50;;;18.90;71.40;;;19.33;56.69;95183.75;5075186;28;20293;-79
2022/08/03 03:16:41;;;;;;;0.50;0.50;;;18.90;71.70;;;19.30;56.82;95192.22;5072023;28;20222;-79
2022/08/03 03:19:12;;;;;;;0.50;0.50;;;18.90;71.90;;;19.29;57.21;95194.06;5071005;28;20305;-78
2022/08/03 03:21:39;;;;;;;0.70;0.70;;;18.80;72.20;;;19.28;57.24;95189.00;5070530;28;20230;-78
2022/08/03 03:24:08;;;;;;;0.50;0.50;;;18.80;72.10;;;19.29;57.30;95193.28;5056341;28;20203;-78
2022/08/03 03:26:39;;;;;;;0.50;0.50;;;18.80;72.10;;;19.30;57.23;95194.88;5072010;28;20218;-79
2022/08/03 03:29:08;;;;;;;0.50;0.50;;;18.80;72.30;;;19.29;57.60;95190.63;5069650;28;20217;-78
2022/08/03 03:31:36;;;;;;;0.45;0.45;;;18.80;72.30;;;19.29;57.28;95188.75;5063832;28;20652;-78
2022/08/03 03:34:03;;;;;;;0.47;0.47;;;18.80;72.40;;;19.31;57.57;95188.50;5067260;28;20213;-78
2022/08/03 03:36:32;;;;;;;0.50;0.50;;;18.80;72.50;;;19.32;57.54;95195.44;5069999;28;20221;-79
2022/08/03 03:38:59;;;;;;;0.57;0.57;;;18.80;72.50;;;19.32;57.89;95192.78;5066357;28;20734;-77
2022/08/03 03:41:42;;;;;;;0.50;0.50;;;18.80;72.40;;;19.31;57.47;95189.31;5081858;28;20210;-79
2022/08/03 03:44:09;;;;;;;0.50;0.50;;;18.80;72.30;;;19.31;57.45;95189.31;5088137;28;20195;-79
2022/08/03 03:46:38;;;;;;;0.60;0.60;;;18.80;72.20;;;19.31;57.35;95193.81;5074609;28;20238;-79
2022/08/03 03:49:06;;;;;;;0.50;0.50;;;18.80;72.30;;;19.30;57.66;95194.88;5066247;28;20198;-79
2022/08/03 03:51:34;;;;;;;0.50;0.50;;;18.80;72.20;;;19.30;57.77;95198.34;5064892;28;20230;-78
2022/08/03 03:54:05;;;;;;;0.50;0.50;;;18.80;72.20;;;19.28;56.95;95195.09;5057541;28;20186;-79
2022/08/03 03:56:32;;;;;;;0.50;0.50;;;18.80;72.20;;;19.29;57.63;95198.59;5069020;28;20305;-78
2022/08/03 03:59:00;;;;;;;0.50;0.50;;;18.80;72.20;;;19.26;57.02;95196.41;5064711;28;20194;-77
2022/08/03 04:01:28;;;;;;;0.50;0.50;;;18.80;72.00;;;19.26;57.78;95202.53;5080607;28;20231;-79
2022/08/03 04:03:55;;;;;;;0.50;0.50;;;18.80;72.30;;;19.26;57.70;95199.06;5060271;28;20222;-79
2022/08/03 04:12:00;;;;;;;0.50;0.50;;;18.80;72.60;;;19.28;58.04;95202.28;5088614;28;20637;-80
2022/08/03 04:14:32;;;;;;;0.50;0.50;;;18.80;74.00;;;19.29;58.23;95204.69;5090684;28;20178;-79
2022/08/03 04:17:06;;;;;;;0.50;0.50;;;18.80;72.60;;;19.30;57.91;95208.97;5072435;28;20221;-80
2022/08/03 04:19:39;;;;;;;0.50;0.50;;;18.80;72.90;;;19.33;57.88;95208.50;5069587;28;20200;-79
2022/08/03 04:22:11;;;;;;;0.50;0.50;;;18.90;72.70;;;19.36;58.06;95204.56;5069824;28;20616;-78
2022/08/03 04:24:46;;;;;;;0.50;0.50;;;18.90;73.20;;;19.40;58.41;95208.34;5073479;28;20179;-79
2022/08/03 04:27:17;;;;;;;0.40;0.40;;;18.90;73.30;;;19.46;58.45;95207.38;5072293;28;20685;-79
2022/08/03 04:29:48;;;;;;;0.50;0.50;;;19.00;73.50;;;19.51;58.68;95209.34;5064112;28;20190;-78
2022/08/03 04:32:16;;;;;;;0.50;0.50;;;19.00;73.60;;;19.56;58.62;95206.75;5072688;28;20229;-79
2022/08/03 04:34:44;;;;;;;0.50;0.50;;;19.00;73.50;;;19.61;58.36;95208.69;5075073;28;20277;-78
2022/08/03 04:37:25;;;;;;;0.50;0.50;;;19.10;74.40;;;19.68;58.69;95212.78;5055521;28;20210;-78
2022/08/03 04:39:57;;;;;;;0.50;0.50;;;19.10;73.80;;;19.73;58.66;95209.41;5070113;28;20221;-79
2022/08/03 04:42:26;;;;;;;0.50;0.50;;;19.20;73.80;;;19.74;58.18;95203.03;5073130;28;20618;-80
2022/08/03 04:44:55;;;;;;;0.45;0.45;;;19.30;73.50;;;19.87;58.90;95217.09;5073966;28;20233;-79
2022/08/03 04:47:30;;;;;;;0.50;0.50;;;19.30;73.70;;;19.93;58.67;95216.94;5090981;28;20331;-79
2022/08/03 04:49:59;;;;;;;0.50;0.50;;;19.40;73.70;;;20.00;58.88;95219.44;5073877;28;20558;-78
2022/08/03 04:52:26;;;;;;;0.50;0.50;;;19.50;73.70;;;20.08;58.33;95220.88;5067218;28;20222;-79
2022/08/03 04:54:53;;;;;;;0.50;0.50;;;19.60;73.70;;;20.14;58.61;95218.06;5070041;28;20193;-78
2022/08/03 04:57:20;;;;;;;0.40;0.40;;;19.60;73.60;;;20.20;58.70;95215.44;5074719;28;20693;-79
2022/08/03 04:59:53;;;;;;;0.50;0.50;;;19.70;73.70;;;20.27;58.90;95214.22;5069120;28;20294;-79
2022/08/03 05:02:30;;;;;;;0.50;0.50;;;19.80;74.30;;;20.34;58.62;95215.94;5090267;28;20214;-80
2022/08/03 05:04:58;;;;;;;0.50;0.50;;;19.90;73.70;;;20.43;58.92;95227.75;5091419;28;20212;-80
2022/08/03 05:07:25;;;;;;;0.50;0.50;;;19.90;73.70;;;20.50;58.95;95222.25;5074281;28;20644;-80
2022/08/03 05:10:07;;;;;;;0.47;0.47;;;20.00;73.70;;;20.58;58.46;95227.13;5089022;28;20196;-80
2022/08/03 05:12:46;;;;;;;0.50;0.50;;;20.10;74.40;;;20.65;58.45;95227.75;5083887;28;20565;-79
2022/08/03 05:15:14;;;;;;;0.40;0.40;;;20.20;73.50;;;20.74;58.44;95225.53;5089238;28;20243;-79
2022/08/03 05:17:42;;;;;;;0.55;0.55;;;20.30;73.40;;;20.80;58.26;95227.19;5091067;28;20678;-79
2022/08/03 05:20:11;;;;;;;0.40;0.40;;;20.30;73.40;;;20.90;58.24;95224.63;5073730;28;20735;-78
2022/08/03 05:22:38;;;;;;;0.40;0.40;;;20.40;73.40;;;20.97;58.42;95227.13;5072166;28;20233;-79
2022/08/03 05:25:06;;;;;;;0.40;0.40;;;20.50;73.40;;;21.05;58.43;95226.66;5077930;28;20218;-80
2022/08/03 05:27:33;;;;;;;0.50;0.50;;;20.60;73.30;;;21.12;58.21;95229.16;5076934;28;20683;-79
2022/08/03 05:30:01;;;;;;;0.40;0.40;;;20.70;73.40;;;21.22;58.63;95233.78;5069102;28;20199;-80
2022/08/03 05:32:48;;;;;;;0.50;0.50;;;20.70;73.40;;;21.29;58.17;95237.06;5085234;28;20195;-79
2022/08/03 05:35:15;;;;;;;0.40;0.40;;;20.80;73.30;;;21.35;58.48;95227.22;5094592;28;20217;-79
2022/08/03 05:38:03;;;;;;;0.40;0.40;;;20.90;73.40;;;21.46;58.24;95228.94;5073765;28;20635;-80
2022/08/03 05:40:31;;;;;;;0.47;0.47;;;21.00;73.20;;;21.53;58.43;95226.88;5084726;28;20202;-79
2022/08/03 05:42:59;;;;;;;0.40;0.40;;;21.10;73.20;;;21.60;58.33;95224.03;5077409;28;20221;-79
2022/08/03 05:45:26;;;;;;;0.50;0.50;;;21.20;73.10;;;21.63;58.09;95217.38;5094530;28;20194;-80
2022/08/03 05:47:54;;;;;;;0.40;0.40;;;21.20;73.10;;;21.77;57.99;95228.44;5077743;28;20221;-80
2022/08/03 05:50:22;;;;;;;0.40;0.40;;;21.30;73.10;;;21.83;58.13;95228.22;5075599;28;20199;-79
2022/08/03 05:52:50;;;;;;;0.40;0.40;;;21.40;73.00;;;21.89;58.18;95229.84;5075620;28;20194;-79
2022/08/03 05:55:17;;;;;;;0.40;0.40;;;21.50;73.10;;;21.97;58.51;95241.97;5078292;28;20211;-79
2022/08/03 05:57:46;;;;;;;0.40;0.40;;;21.60;73.20;;;22.07;58.33;95235.88;5075428;28;20198;-78
2022/08/03 06:00:15;;;;;;;0.40;0.40;;;21.60;73.20;;;22.14;58.18;95230.31;5092275;28;20192;-79
2022/08/03 06:02:43;;;;;;;0.40;0.40;;;21.70;73.10;;;22.24;57.85;95233.06;5086461;28;20318;-80
2022/08/03 06:05:11;;;;;;;0.40;0.40;;;21.80;73.10;;;22.31;58.02;95232.81;5076216;28;20204;-80
2022/08/03 06:07:38;;;;;;;0.40;0.40;;;21.90;73.00;;;22.39;58.32;95233.16;5075165;28;20225;-80
2022/08/03 06:10:06;;;;;;;0.40;0.40;;;22.00;73.90;;;22.48;57.94;95233.47;5092359;28;20186;-79
2022/08/03 06:12:55;;;;;;;0.40;0.40;;;22.10;72.90;;;22.57;57.89;95228.47;5090817;28;20197;-79
2022/08/03 06:15:22;;;;;;;0.40;0.40;;;22.20;73.00;;;22.65;57.83;95229.81;5081527;28;20659;-80
2022/08/03 06:17:50;;;;;;;0.40;0.40;;;22.20;73.00;;;22.78;58.15;95231.22;5073010;28;20459;-80
2022/08/03 06:20:19;;;;;;;0.40;0.40;;;22.30;73.00;;;22.88;57.81;95230.47;5077348;28;20202;-81
2022/08/03 06:22:48;;;;;;;0.40;0.40;;;22.40;72.90;;;22.98;57.94;95225.13;5077271;28;20259;-81
2022/08/03 06:25:18;;;;;;;0.30;0.30;;;22.50;73.00;;;23.03;58.06;95222.47;5071153;28;20247;-79
2022/08/03 06:27:47;;;;;;;0.40;0.40;;;22.70;73.00;;;23.19;58.04;95231.38;5061701;28;20207;-81
2022/08/03 06:30:16;;;;;;;0.40;0.40;;;22.70;72.80;;;23.28;57.79;95239.72;5071903;28;20198;-79
2022/08/03 06:32:47;;;;;;;0.35;0.35;;;22.90;72.70;;;23.38;57.77;95238.94;5073698;28;20198;-80
2022/08/03 06:35:19;;;;;;;0.40;0.40;;;23.00;72.70;;;23.48;57.61;95234.38;5061012;28;20217;-80
2022/08/03 06:37:50;;;;;;;0.30;0.30;;;23.10;72.70;;;23.56;57.62;95238.41;5089653;28;20256;-80
2022/08/03 06:40:27;;;;;;;0.40;0.40;;;23.20;72.50;;;23.67;57.62;95240.03;5040301;28;20663;-81
2022/08/03 06:42:59;;;;;;;0.50;0.50;;;23.30;72.50;;;23.79;57.37;95242.44;5068184;28;20218;-80
2022/08/03 06:45:27;;;;;;;0.40;0.40;;;23.40;72.60;;;23.88;57.39;95245.38;5072803;28;20199;-80
2022/08/03 06:48:10;;;;;;;0.38;0.38;;;23.50;72.50;;;23.98;57.43;95245.41;5073502;28;20198;-81
2022/08/03 06:50:40;;;;;;;0.30;0.30;;;23.60;72.20;;;24.11;57.05;95246.75;5075713;28;20294;-80
2022/08/03 06:53:09;;;;;;;0.50;0.50;;;23.70;72.40;;;24.22;57.29;95249.44;5072356;28;20223;-80
2022/08/03 06:55:45;;;;;;;0.50;0.50;;;23.80;72.30;;;24.33;57.14;95252.88;5058930;28;21369;-79
2022/08/03 06:58:19;;;;;;;0.43;0.43;;;23.90;72.30;;;24.45;56.96;95248.06;5077692;28;20354;-79
2022/08/03 07:00:47;;;;;;;0.30;0.30;;;24.00;71.90;;;24.54;56.61;95249.09;5058649;28;20312;-80
2022/08/03 07:03:14;;;;;;;0.30;0.30;;;24.10;71.50;;;24.66;56.39;95254.19;5076871;28;20284;-79
2022/08/03 07:05:46;;;;;;;0.35;0.35;;;24.20;71.30;;;24.76;56.05;95253.34;5088468;28;20300;-79
2022/08/03 07:08:14;;;;;;;0.30;0.30;;;24.40;71.00;;;24.87;55.71;95246.06;5056849;28;20210;-79
2022/08/03 07:10:42;;;;;;;0.30;0.30;;;24.50;70.90;;;24.96;55.44;95249.78;5072982;28;20317;-80
2022/08/03 07:13:10;;;;;;;0.30;0.30;;;24.60;70.80;;;25.08;55.13;95241.41;5075092;28;20198;-78
2022/08/03 07:15:38;;;;;;;0.40;0.40;;;24.70;70.50;;;25.15;55.07;95249.16;5074749;28;20187;-78
2022/08/03 07:18:23;;;;;;;0.30;0.30;;;24.80;70.20;;;25.24;54.79;95255.53;5069726;28;20226;-78
2022/08/03 07:20:57;;;;;;;0.30;0.30;;;24.90;70.00;;;25.31;54.79;95248.00;5055175;28;20649;-80
2022/08/03 07:23:24;;;;;;;0.30;0.30;;;24.90;70.70;;;25.42;54.63;95244.19;5086923;28;20226;-79
2022/08/03 07:25:51;;;;;;;0.40;0.40;;;25.10;69.70;;;25.49;54.13;95245.78;5073029;28;20238;-77
2022/08/03 07:28:19;;;;;;;0.50;0.50;;;25.10;69.60;;;25.57;54.12;95243.31;5082004;28;20293;-80
2022/08/03 07:30:46;;;;;;;0.30;0.30;;;25.20;69.30;;;25.63;53.85;95246.75;5063892;28;20236;-80
2022/08/03 07:33:14;;;;;;;0.30;0.30;;;25.30;69.10;;;25.73;53.65;95243.19;5092618;28;20190;-80
2022/08/03 07:35:41;;;;;;;0.60;0.60;;;25.40;68.90;;;25.81;53.65;95245.28;5075903;28;20216;-79
2022/08/03 07:38:11;;;;;;;0.40;0.40;;;25.40;68.90;;;25.89;53.40;95244.69;5092418;28;20202;-79
2022/08/03 07:40:38;;;;;;;0.30;0.30;;;25.50;68.70;;;25.98;53.28;95244.09;5069718;28;20188;-77
2022/08/03 07:43:11;;;;;;;0.30;0.30;;;25.60;68.40;;;26.05;53.40;95239.97;5070839;28;20266;-78
2022/08/03 07:45:39;;;;;;;0.40;0.40;;;25.70;69.20;;;26.14;53.11;95242.09;5088705;28;20649;-78
2022/08/03 07:48:06;;;;;;;0.32;0.32;;;25.80;67.90;;;26.21;52.59;95245.25;5057643;28;20209;-77
2022/08/03 07:50:38;;;;;;;0.38;0.38;;;25.80;67.80;;;26.29;52.12;95238.44;5075492;28;20724;-79
2022/08/03 07:53:05;;;;;;;0.30;0.30;;;25.90;67.90;;;26.36;51.95;95242.41;5075541;28;20201;-78
2022/08/03 07:55:33;;;;;;;0.22;0.22;;;26.00;67.60;;;26.45;52.08;95247.16;5072880;28;20676;-79
2022/08/03 07:58:08;;;;;;;0.30;0.30;;;26.10;67.70;;;26.54;51.70;95248.16;5058441;28;20784;-79
2022/08/03 08:00:36;;;;;;;0.30;0.30;;;26.20;67.20;;;26.62;51.63;95244.84;5057423;28;20294;-79
2022/08/03 08:03:04;;;;;;;0.20;0.20;;;26.20;67.20;;;26.69;51.47;95237.22;5072167;28;20656;-79
2022/08/03 08:05:32;;;;;;;0.30;0.30;;;26.40;67.00;;;26.78;50.94;95248.19;5075286;28;20283;-79
2022/08/03 08:08:03;;;;;;;0.30;0.30;;;26.40;66.70;;;26.85;50.93;95242.44;5091394;28;20201;-80
2022/08/03 08:10:31;;;;;;;0.30;0.30;;;26.50;66.30;;;26.91;50.92;95235.91;5070945;28;20237;-80
2022/08/03 08:12:59;;;;;;;0.30;0.30;;;26.60;66.40;;;26.99;50.44;95235.28;5064160;28;20194;-80
2022/08/03 08:15:26;;;;;;;0.40;0.40;;;26.60;66.00;;;27.05;50.56;95236.03;5055281;28;20195;-79
2022/08/03 08:17:58;;;;;;;0.30;0.30;;;26.70;65.70;;;27.12;49.97;95239.16;5071789;28;20224;-79
2022/08/03 08:20:34;;;;;;;0.30;0.30;;;26.80;65.30;;;27.20;50.23;95236.94;5056236;28;20201;-80
2022/08/03 08:23:07;;;;;;;0.20;0.20;;;26.80;65.30;;;27.27;49.67;95240.84;5065464;28;20566;-80
2022/08/03 08:25:54;;;;;;;0.30;0.30;;;26.90;65.30;;;27.34;49.20;95237.78;5079865;28;20231;-79
2022/08/03 08:28:22;;;;;;;0.30;0.30;;;27.00;65.00;;;27.41;48.86;95224.78;5075212;28;20186;-80
2022/08/03 08:31:00;;;;;;;0.30;0.30;;;27.10;64.60;;;27.48;49.40;95230.59;5082100;28;20231;-79
2022/08/03 08:33:28;;;;;;;0.30;0.30;;;27.10;64.70;;;27.53;48.46;95232.44;5074947;28;20487;-80
2022/08/03 08:36:15;;;;;;;0.30;0.30;;;27.20;64.20;;;27.60;48.46;95234.75;5076226;28;20220;-80
2022/08/03 08:38:43;;;;;;;0.38;0.38;;;27.30;64.00;;;27.68;48.07;95227.91;5073908;28;20193;-80
2022/08/03 08:41:13;;;;;;;0.40;0.40;;;27.30;63.80;;;27.74;47.95;95227.53;5057437;28;20278;-80
2022/08/03 08:43:41;;;;;;;0.32;0.32;;;27.40;63.50;;;27.81;47.46;95224.47;5073981;28;20228;-81
2022/08/03 08:46:12;;;;;;;0.30;0.30;;;27.40;63.40;;;27.89;47.60;95229.19;5074228;28;20285;-79
2022/08/03 08:48:52;;;;;;;0.30;0.30;;;27.50;62.90;;;27.96;47.74;95226.09;5088395;28;20278;-80
2022/08/03 08:51:21;;;;;;;0.30;0.30;;;27.60;63.00;;;28.04;46.54;95221.94;5091136;28;20232;-79
2022/08/03 08:53:52;;;;;;;0.30;0.30;;;27.70;62.40;;;28.09;46.01;95233.47;5090454;28;20202;-79
2022/08/03 08:56:24;;;;;;;0.20;0.20;;;27.80;62.00;;;28.17;46.28;95228.50;5073102;28;20293;-81
2022/08/03 08:59:00;;;;;;;0.40;0.40;;;27.80;61.50;;;28.22;45.13;95233.78;5087150;28;20558;-79
2022/08/03 09:01:29;;;;;;;0.30;0.30;;;27.90;61.30;;;28.26;45.65;95230.22;5082126;28;20782;-77
2022/08/03 09:03:56;;;;;;;0.30;0.30;;;27.90;61.40;;;28.34;45.46;95228.72;5074533;28;20252;-79
2022/08/03 09:06:24;;;;;;;0.30;0.30;;;28.00;61.30;;;28.39;45.07;95225.94;5073259;28;20761;-79
2022/08/03 09:08:51;;;;;;;0.38;0.38;;;28.10;61.10;;;28.47;45.30;95221.75;5073703;28;20205;-79
2022/08/03 09:11:22;;;;;;;0.30;0.30;;;28.10;61.00;;;28.54;44.42;95219.44;5070223;28;20270;-79
2022/08/03 09:14:10;;;;;;;0.30;0.30;;;28.20;60.60;;;28.58;43.69;95220.44;5076842;28;20199;-80
2022/08/03 09:17:03;;;;;;;0.30;0.30;;;28.30;60.10;;;28.68;44.14;95221.34;5089650;28;20220;-78
2022/08/03 09:19:32;;;;;;;0.30;0.30;;;28.30;60.00;;;28.76;42.90;95226.09;5087321;28;20193;-80
2022/08/03 09:22:17;;;;;;;0.30;0.30;;;28.40;59.20;;;28.82;43.32;95224.06;5068312;28;20210;-80
2022/08/03 09:25:10;;;;;;;0.30;0.30;;;28.50;59.30;;;28.87;43.60;95216.69;5054947;28;20254;-79
2022/08/03 09:27:53;;;;;;;0.30;0.30;;;28.50;59.50;;;28.96;43.04;95221.38;5062362;28;20643;-80
2022/08/03 09:30:20;;;;;;;0.30;0.30;;;28.60;58.90;;;29.02;42.43;95226.34;5072577;28;20195;-79
2022/08/03 09:33:07;;;;;;;0.40;0.40;;;28.70;58.60;;;29.10;42.20;95218.66;5089650;28;20193;-80
2022/08/03 09:35:47;;;;;;;0.30;0.30;;;28.70;57.70;;;29.18;41.75;95220.63;5086125;28;20298;-79
2022/08/03 09:38:26;;;;;;;0.30;0.30;;;28.80;57.90;;;29.21;41.25;95226.22;5074325;28;20472;-80
2022/08/03 09:40:55;;;;;;;0.30;0.30;;;28.80;56.90;;;29.28;41.69;95215.00;5057405;28;20223;-80
2022/08/03 09:43:27;;;;;;;0.30;0.30;;;28.90;57.10;;;29.33;40.22;95222.22;5073726;28;20206;-79
2022/08/03 09:46:04;;;;;;;0.30;0.30;;;29.00;56.00;;;29.34;39.16;95203.00;5069991;28;20275;-80
2022/08/03 09:48:36;;;;;;;0.30;0.30;;;29.00;54.90;;;29.40;40.36;95209.09;5072635;28;20202;-80
2022/08/03 09:51:04;;;;;;;0.20;0.20;;;29.10;55.60;;;29.46;40.15;95205.19;5089220;28;20568;-80
2022/08/03 09:53:56;;;;;;;0.30;0.30;;;29.10;55.40;;;29.48;39.96;95194.06;5076612;28;20703;-80
2022/08/03 09:56:46;;;;;;;0.30;0.30;;;29.10;55.70;;;29.53;40.05;95200.16;5086295;28;20305;-78
2022/08/03 09:59:27;;;;;;;0.20;0.20;;;29.20;56.10;;;29.58;39.31;95193.00;5091054;28;20204;-80
2022/08/03 10:01:56;;;;;;;0.30;0.30;;;29.20;55.10;;;29.62;39.12;95194.81;5073879;28;20264;-79
2022/08/03 10:04:24;;;;;;;0.40;0.40;;;29.30;54.70;;;29.66;38.84;95189.59;5074143;28;20683;-79
2022/08/03 10:07:10;;;;;;;0.30;0.30;;;29.30;54.70;;;29.72;39.25;95191.06;5073374;28;20238;-79
2022/08/03 10:09:37;;;;;;;0.20;0.20;;;29.40;56.30;;;29.80;38.83;95192.25;5075342;28;20201;-79
2022/08/03 10:12:12;;;;;;;0.30;0.30;;;29.50;54.50;;;29.87;38.77;95193.41;5077334;28;20214;-80
2022/08/03 10:14:44;;;;;;;0.30;0.30;;;29.50;54.00;;;29.94;38.64;95200.31;5077026;28;20215;-79
2022/08/03 10:17:11;;;;;;;0.20;0.20;;;29.60;54.40;;;29.98;38.91;95195.84;5093700;28;20216;-79
2022/08/03 10:19:40;;;;;;;0.20;0.20;;;29.60;54.00;;;30.06;39.25;95197.03;5060798;28;20229;-79
2022/08/03 10:22:11;;;;;;;0.30;0.30;;;29.60;54.10;;;30.10;38.10;95193.41;5070864;28;20311;-79
2022/08/03 10:24:53;;;;;;;0.30;0.30;;;29.70;53.50;;;30.15;37.94;95187.88;5094004;28;20219;-79
2022/08/03 10:27:23;;;;;;;0.30;0.30;;;29.80;53.10;;;30.18;37.92;95189.94;5093995;28;20307;-80
2022/08/03 10:29:54;;;;;;;0.30;0.30;;;29.80;52.40;;;30.22;37.87;95190.09;5093363;28;20185;-80
2022/08/03 10:32:40;;;;;;;0.20;0.20;;;29.80;52.80;;;30.22;37.02;95184.69;5073793;28;20256;-79
2022/08/03 10:35:19;;;;;;;0.30;0.30;;;29.90;51.90;;;30.29;36.41;95186.97;5073759;28;20216;-80
2022/08/03 10:38:07;;;;;;;0.30;0.30;;;29.90;50.70;;;30.31;36.80;95188.25;5068797;28;20302;-80
2022/08/03 10:40:37;;;;;;;0.30;0.30;;;30.00;51.50;;;30.38;36.88;95178.88;5076145;28;20682;-78
2022/08/03 10:43:27;;;;;;;0.30;0.30;;;30.00;51.10;;;30.44;36.28;95188.47;5070930;28;20200;-80
2022/08/03 10:45:56;;;;;;;0.30;0.30;;;30.10;51.20;;;30.49;36.21;95175.63;5076700;28;20231;-78
2022/08/03 10:48:25;;;;;;;0.20;0.20;;;30.10;50.60;;;30.55;36.31;95176.25;5075569;28;20196;-80